sensor_id;sensor_type;location;lat;lon;timestamp;pressure;altitude;pressure_sealevel;temperature;humidity
33075;BME280;19433;51.292;6.868;2023-08-17T00:00:07;100675.19;;;16.91;100.00
33075;BME280;19433;51.292;6.868;2023-08-17T00:02:38;100675.28;;;16.84;100.00
33075;BME280;19433;51.292;6.868;2023-08-17T00:05:04;100677.59;;;16.76;100.00
33075;BME280;19433;51.292;6.868;2023-08-17T00:07:31;100677.22;;;16.72;100.00
33075;BME280;19433;51.292;6.868;2023-08-17T00:09:56;100681.00;;;16.78;100.00
33075;BME280;19433;51.292;6.868;2023-08-17T00:12:21;100693.72;;;16.74;100.00
33075;BME280;19433;51.292;6.868;2023-08-17T00:14:47;100688.47;;;16.66;100.00
33075;BME280;19433;51.292;6.868;2023-08-17T00:17:12;100686.91;;;16.70;100.00
33075;BME280;19433;51.292;6.868;2023-08-17T00:19:37;100687.91;;;16.75;100.00
33075;BME280;19433;51.292;6.868;2023-08-17T00:22:03;100699.06;;;16.75;100.00
33075;BME280;19433;51.292;6.868;2023-08-17T00:24:28;100698.78;;;16.65;100.00
33075;BME280;19433;51.292;6.868;2023-08-17T00:26:54;100689.69;;;16.70;100.00
33075;BME280;19433;51.292;6.868;2023-08-17T00:29:19;100691.56;;;16.58;100.00
33075;BME280;19433;51.292;6.868;2023-08-17T00:31:44;100689.47;;;16.71;100.00
33075;BME280;19433;51.292;6.868;2023-08-17T00:34:10;100692.19;;;16.60;100.00
33075;BME280;19433;51.292;6.868;2023-08-17T00:36:35;100696.44;;;16.62;100.00
33075;BME280;19433;51.292;6.868;2023-08-17T00:39:01;100697.16;;;16.58;100.00
33075;BME280;19433;51.292;6.868;2023-08-17T00:41:26;100686.25;;;16.56;100.00
33075;BME280;19433;51.292;6.868;2023-08-17T00:43:53;100690.81;;;16.50;100.00
33075;BME280;19433;51.292;6.868;2023-08-17T00:46:19;100701.31;;;16.67;100.00
33075;BME280;19433;51.292;6.868;2023-08-17T00:48:45;100701.03;;;16.57;100.00
33075;BME280;19433;51.292;6.868;2023-08-17T00:51:10;100696.69;;;16.61;100.00
33075;BME280;19433;51.292;6.868;2023-08-17T00:53:36;100717.78;;;16.57;100.00
33075;BME280;19433;51.292;6.868;2023-08-17T00:56:02;100702.41;;;16.66;100.00
33075;BME280;19433;51.292;6.868;2023-08-17T00:58:28;100706.13;;;16.60;100.00
33075;BME280;19433;51.292;6.868;2023-08-17T01:00:54;100707.53;;;16.69;100.00
33075;BME280;19433;51.292;6.868;2023-08-17T01:03:20;100704.28;;;16.83;100.00
33075;BME280;19433;51.292;6.868;2023-08-17T01:05:48;100705.69;;;16.63;100.00
33075;BME280;19433;51.292;6.868;2023-08-17T01:08:13;100694.19;;;16.71;100.00
33075;BME280;19433;51.292;6.868;2023-08-17T01:10:59;100704.25;;;16.72;100.00
33075;BME280;19433;51.292;6.868;2023-08-17T01:13:38;100694.75;;;16.61;100.00
33075;BME280;19433;51.292;6.868;2023-08-17T01:16:05;100694.88;;;16.66;100.00
33075;BME280;19433;51.292;6.868;2023-08-17T01:18:36;100683.88;;;16.71;100.00
33075;BME280;19433;51.292;6.868;2023-08-17T01:21:05;100665.66;;;16.69;100.00
33075;BME280;19433;51.292;6.868;2023-08-17T01:23:31;100678.47;;;16.58;100.00
33075;BME280;19433;51.292;6.868;2023-08-17T01:25:57;100668.03;;;16.53;100.00
33075;BME280;19433;51.292;6.868;2023-08-17T01:28:22;100669.50;;;16.56;100.00
33075;BME280;19433;51.292;6.868;2023-08-17T01:31:01;100663.78;;;16.51;100.00
33075;BME280;19433;51.292;6.868;2023-08-17T01:33:52;100656.34;;;16.63;100.00
33075;BME280;19433;51.292;6.868;2023-08-17T01:36:26;100659.78;;;16.47;100.00
33075;BME280;19433;51.292;6.868;2023-08-17T01:38:53;100648.50;;;16.42;100.00
33075;BME280;19433;51.292;6.868;2023-08-17T01:41:22;100657.63;;;16.49;100.00
33075;BME280;19433;51.292;6.868;2023-08-17T01:43:51;100653.13;;;16.48;100.00
33075;BME280;19433;51.292;6.868;2023-08-17T01:46:18;100653.97;;;16.48;100.00
33075;BME280;19433;51.292;6.868;2023-08-17T01:48:44;100654.56;;;16.50;100.00
33075;BME280;19433;51.292;6.868;2023-08-17T01:51:11;100659.03;;;16.51;100.00
33075;BME280;19433;51.292;6.868;2023-08-17T01:53:37;100657.91;;;16.29;100.00
33075;BME280;19433;51.292;6.868;2023-08-17T01:56:02;100655.00;;;16.36;100.00
33075;BME280;19433;51.292;6.868;2023-08-17T01:58:28;100651.25;;;16.30;100.00
33075;BME280;19433;51.292;6.868;2023-08-17T02:00:53;100652.47;;;16.34;100.00
33075;BME280;19433;51.292;6.868;2023-08-17T02:03:18;100654.16;;;16.35;100.00
33075;BME280;19433;51.292;6.868;2023-08-17T02:05:47;100648.56;;;16.35;100.00
33075;BME280;19433;51.292;6.868;2023-08-17T02:08:12;100652.72;;;16.33;100.00
33075;BME280;19433;51.292;6.868;2023-08-17T02:10:37;100648.00;;;16.45;100.00
33075;BME280;19433;51.292;6.868;2023-08-17T02:13:03;100649.69;;;16.34;100.00
33075;BME280;19433;51.292;6.868;2023-08-17T02:15:28;100651.00;;;16.32;100.00
33075;BME280;19433;51.292;6.868;2023-08-17T02:17:54;100650.03;;;16.38;100.00
33075;BME280;19433;51.292;6.868;2023-08-17T02:20:19;100655.06;;;16.47;100.00
33075;BME280;19433;51.292;6.868;2023-08-17T02:22:44;100659.88;;;16.40;100.00
33075;BME280;19433;51.292;6.868;2023-08-17T02:25:10;100656.38;;;16.45;100.00
33075;BME280;19433;51.292;6.868;2023-08-17T02:27:35;100670.13;;;16.58;100.00
33075;BME280;19433;51.292;6.868;2023-08-17T02:30:00;100657.22;;;16.45;100.00
33075;BME280;19433;51.292;6.868;2023-08-17T02:32:26;100662.59;;;16.59;100.00
33075;BME280;19433;51.292;6.868;2023-08-17T02:34:51;100666.53;;;16.69;100.00
33075;BME280;19433;51.292;6.868;2023-08-17T02:37:16;100668.75;;;16.79;100.00
33075;BME280;19433;51.292;6.868;2023-08-17T02:39:42;100660.47;;;16.84;100.00
33075;BME280;19433;51.292;6.868;2023-08-17T02:42:07;100658.28;;;16.86;100.00
33075;BME280;19433;51.292;6.868;2023-08-17T02:44:32;100654.31;;;16.94;100.00
33075;BME280;19433;51.292;6.868;2023-08-17T02:46:57;100661.56;;;16.83;100.00
33075;BME280;19433;51.292;6.868;2023-08-17T02:49:23;100653.56;;;16.63;100.00
33075;BME280;19433;51.292;6.868;2023-08-17T02:51:48;100653.44;;;16.81;100.00
33075;BME280;19433;51.292;6.868;2023-08-17T02:54:13;100645.94;;;16.52;100.00
33075;BME280;19433;51.292;6.868;2023-08-17T02:56:38;100635.53;;;16.47;100.00
33075;BME280;19433;51.292;6.868;2023-08-17T02:59:04;100643.78;;;16.54;100.00
33075;BME280;19433;51.292;6.868;2023-08-17T03:01:29;100641.59;;;16.56;100.00
33075;BME280;19433;51.292;6.868;2023-08-17T03:03:56;100638.09;;;16.61;100.00
33075;BME280;19433;51.292;6.868;2023-08-17T03:06:21;100641.78;;;16.73;100.00
33075;BME280;19433;51.292;6.868;2023-08-17T03:08:46;100645.63;;;16.60;100.00
33075;BME280;19433;51.292;6.868;2023-08-17T03:11:12;100634.78;;;16.40;100.00
33075;BME280;19433;51.292;6.868;2023-08-17T03:13:37;100645.78;;;16.35;100.00
33075;BME280;19433;51.292;6.868;2023-08-17T03:16:02;100649.94;;;16.33;100.00
33075;BME280;19433;51.292;6.868;2023-08-17T03:18:28;100645.31;;;16.38;100.00
33075;BME280;19433;51.292;6.868;2023-08-17T03:20:53;100639.19;;;16.48;100.00
33075;BME280;19433;51.292;6.868;2023-08-17T03:23:18;100647.41;;;16.54;100.00
33075;BME280;19433;51.292;6.868;2023-08-17T03:25:44;100643.91;;;16.47;100.00
33075;BME280;19433;51.292;6.868;2023-08-17T03:28:11;100645.59;;;16.48;100.00
33075;BME280;19433;51.292;6.868;2023-08-17T03:30:36;100636.00;;;16.33;100.00
33075;BME280;19433;51.292;6.868;2023-08-17T03:33:01;100651.63;;;16.34;100.00
33075;BME280;19433;51.292;6.868;2023-08-17T03:35:47;100659.72;;;16.35;100.00
33075;BME280;19433;51.292;6.868;2023-08-17T03:38:12;100649.81;;;16.39;100.00
33075;BME280;19433;51.292;6.868;2023-08-17T03:40:38;100650.41;;;16.30;100.00
33075;BME280;19433;51.292;6.868;2023-08-17T03:43:03;100646.09;;;16.15;100.00
33075;BME280;19433;51.292;6.868;2023-08-17T03:45:29;100649.88;;;16.21;100.00
33075;BME280;19433;51.292;6.868;2023-08-17T03:47:55;100653.63;;;16.15;100.00
33075;BME280;19433;51.292;6.868;2023-08-17T03:50:21;100652.63;;;16.09;100.00
33075;BME280;19433;51.292;6.868;2023-08-17T03:52:56;100649.16;;;16.26;100.00
33075;BME280;19433;51.292;6.868;2023-08-17T03:55:22;100658.41;;;16.38;100.00
33075;BME280;19433;51.292;6.868;2023-08-17T03:57:47;100655.78;;;16.43;100.00
33075;BME280;19433;51.292;6.868;2023-08-17T04:00:12;100656.22;;;16.28;100.00
33075;BME280;19433;51.292;6.868;2023-08-17T04:02:38;100663.34;;;16.24;100.00
33075;BME280;19433;51.292;6.868;2023-08-17T04:05:03;100661.41;;;16.25;100.00
33075;BME280;19433;51.292;6.868;2023-08-17T04:07:29;100660.31;;;16.26;100.00
33075;BME280;19433;51.292;6.868;2023-08-17T04:09:54;100665.69;;;16.39;100.00
33075;BME280;19433;51.292;6.868;2023-08-17T04:12:19;100655.38;;;16.39;100.00
33075;BME280;19433;51.292;6.868;2023-08-17T04:14:45;100667.63;;;16.38;100.00
33075;BME280;19433;51.292;6.868;2023-08-17T04:17:11;100664.59;;;16.40;100.00
33075;BME280;19433;51.292;6.868;2023-08-17T04:19:36;100662.81;;;16.45;100.00
33075;BME280;19433;51.292;6.868;2023-08-17T04:22:02;100662.28;;;16.37;100.00
33075;BME280;19433;51.292;6.868;2023-08-17T04:24:27;100671.72;;;16.36;100.00
33075;BME280;19433;51.292;6.868;2023-08-17T04:26:52;100666.91;;;16.43;100.00
33075;BME280;19433;51.292;6.868;2023-08-17T04:29:18;100677.31;;;16.36;100.00
33075;BME280;19433;51.292;6.868;2023-08-17T04:31:43;100678.53;;;16.40;100.00
33075;BME280;19433;51.292;6.868;2023-08-17T04:34:08;100673.41;;;16.25;100.00
33075;BME280;19433;51.292;6.868;2023-08-17T04:36:33;100669.94;;;16.41;100.00
33075;BME280;19433;51.292;6.868;2023-08-17T04:38:59;100673.22;;;16.50;100.00
33075;BME280;19433;51.292;6.868;2023-08-17T04:41:24;100674.00;;;16.57;100.00
33075;BME280;19433;51.292;6.868;2023-08-17T04:43:49;100663.78;;;16.51;100.00
33075;BME280;19433;51.292;6.868;2023-08-17T04:46:15;100673.72;;;16.47;100.00
33075;BME280;19433;51.292;6.868;2023-08-17T04:48:40;100675.19;;;16.49;100.00
33075;BME280;19433;51.292;6.868;2023-08-17T04:51:05;100683.22;;;16.58;100.00
33075;BME280;19433;51.292;6.868;2023-08-17T04:53:31;100681.59;;;16.50;100.00
33075;BME280;19433;51.292;6.868;2023-08-17T04:55:56;100682.34;;;16.57;100.00
33075;BME280;19433;51.292;6.868;2023-08-17T04:58:21;100683.81;;;16.60;100.00
33075;BME280;19433;51.292;6.868;2023-08-17T05:00:47;100679.94;;;16.61;100.00
33075;BME280;19433;51.292;6.868;2023-08-17T05:03:13;100683.25;;;16.69;100.00
33075;BME280;19433;51.292;6.868;2023-08-17T05:05:38;100685.59;;;16.42;100.00
33075;BME280;19433;51.292;6.868;2023-08-17T05:08:04;100682.34;;;16.45;100.00
33075;BME280;19433;51.292;6.868;2023-08-17T05:10:29;100681.28;;;16.58;100.00
33075;BME280;19433;51.292;6.868;2023-08-17T05:12:54;100692.38;;;16.76;100.00
33075;BME280;19433;51.292;6.868;2023-08-17T05:15:20;100688.84;;;16.69;100.00
33075;BME280;19433;51.292;6.868;2023-08-17T05:17:45;100703.09;;;16.91;100.00
33075;BME280;19433;51.292;6.868;2023-08-17T05:20:11;100699.44;;;17.02;100.00
33075;BME280;19433;51.292;6.868;2023-08-17T05:22:37;100697.22;;;16.81;100.00
33075;BME280;19433;51.292;6.868;2023-08-17T05:25:03;100692.41;;;16.88;100.00
33075;BME280;19433;51.292;6.868;2023-08-17T05:27:29;100698.94;;;16.82;100.00
33075;BME280;19433;51.292;6.868;2023-08-17T05:29:54;100689.72;;;16.81;100.00
33075;BME280;19433;51.292;6.868;2023-08-17T05:32:19;100688.50;;;16.77;100.00
33075;BME280;19433;51.292;6.868;2023-08-17T05:34:44;100693.09;;;16.83;100.00
33075;BME280;19433;51.292;6.868;2023-08-17T05:37:11;100695.81;;;17.02;100.00
33075;BME280;19433;51.292;6.868;2023-08-17T05:39:36;100697.75;;;17.01;100.00
33075;BME280;19433;51.292;6.868;2023-08-17T05:42:02;100696.19;;;17.05;100.00
33075;BME280;19433;51.292;6.868;2023-08-17T05:44:27;100696.81;;;17.07;100.00
33075;BME280;19433;51.292;6.868;2023-08-17T05:46:52;100709.16;;;17.00;100.00
33075;BME280;19433;51.292;6.868;2023-08-17T05:49:18;100694.47;;;17.04;100.00
33075;BME280;19433;51.292;6.868;2023-08-17T05:51:43;100707.91;;;16.84;100.00
33075;BME280;19433;51.292;6.868;2023-08-17T05:54:08;100696.31;;;17.10;100.00
33075;BME280;19433;51.292;6.868;2023-08-17T05:56:34;100698.25;;;17.21;100.00
33075;BME280;19433;51.292;6.868;2023-08-17T05:58:59;100699.59;;;17.31;100.00
33075;BME280;19433;51.292;6.868;2023-08-17T06:01:24;100693.25;;;17.00;100.00
33075;BME280;19433;51.292;6.868;2023-08-17T06:03:50;100696.56;;;17.09;100.00
33075;BME280;19433;51.292;6.868;2023-08-17T06:06:15;100698.25;;;17.10;100.00
33075;BME280;19433;51.292;6.868;2023-08-17T06:08:40;100693.16;;;17.07;100.00
33075;BME280;19433;51.292;6.868;2023-08-17T06:11:05;100699.94;;;16.99;100.00
33075;BME280;19433;51.292;6.868;2023-08-17T06:13:31;100697.03;;;17.17;100.00
33075;BME280;19433;51.292;6.868;2023-08-17T06:15:56;100704.22;;;17.25;100.00
33075;BME280;19433;51.292;6.868;2023-08-17T06:18:22;100708.81;;;17.31;100.00
33075;BME280;19433;51.292;6.868;2023-08-17T06:20:47;100715.25;;;17.55;100.00
33075;BME280;19433;51.292;6.868;2023-08-17T06:23:13;100709.53;;;17.73;100.00
33075;BME280;19433;51.292;6.868;2023-08-17T06:25:38;100716.81;;;17.86;100.00
33075;BME280;19433;51.292;6.868;2023-08-17T06:28:05;100717.13;;;18.01;100.00
33075;BME280;19433;51.292;6.868;2023-08-17T06:30:31;100705.28;;;17.82;100.00
33075;BME280;19433;51.292;6.868;2023-08-17T06:32:56;100713.53;;;17.77;100.00
33075;BME280;19433;51.292;6.868;2023-08-17T06:35:21;100712.31;;;17.73;100.00
33075;BME280;19433;51.292;6.868;2023-08-17T06:37:47;100719.94;;;17.89;100.00
33075;BME280;19433;51.292;6.868;2023-08-17T06:40:12;100706.53;;;18.03;100.00
33075;BME280;19433;51.292;6.868;2023-08-17T06:42:37;100723.19;;;18.10;100.00
33075;BME280;19433;51.292;6.868;2023-08-17T06:45:03;100723.94;;;17.93;100.00
33075;BME280;19433;51.292;6.868;2023-08-17T06:47:29;100725.97;;;18.10;100.00
33075;BME280;19433;51.292;6.868;2023-08-17T06:49:55;100722.97;;;18.00;100.00
33075;BME280;19433;51.292;6.868;2023-08-17T06:52:20;100726.03;;;18.26;100.00
33075;BME280;19433;51.292;6.868;2023-08-17T06:54:45;100721.91;;;18.29;100.00
33075;BME280;19433;51.292;6.868;2023-08-17T06:57:11;100723.41;;;18.48;100.00
33075;BME280;19433;51.292;6.868;2023-08-17T06:59:36;100727.94;;;18.38;100.00
33075;BME280;19433;51.292;6.868;2023-08-17T07:02:01;100722.88;;;18.23;100.00
33075;BME280;19433;51.292;6.868;2023-08-17T07:04:26;100722.59;;;18.36;100.00
33075;BME280;19433;51.292;6.868;2023-08-17T07:06:52;100727.84;;;18.33;100.00
33075;BME280;19433;51.292;6.868;2023-08-17T07:09:17;100730.78;;;18.54;100.00
33075;BME280;19433;51.292;6.868;2023-08-17T07:11:42;100731.19;;;18.46;100.00
33075;BME280;19433;51.292;6.868;2023-08-17T07:14:08;100727.03;;;18.49;100.00
33075;BME280;19433;51.292;6.868;2023-08-17T07:16:33;100727.50;;;18.29;100.00
33075;BME280;19433;51.292;6.868;2023-08-17T07:18:58;100726.09;;;18.15;100.00
33075;BME280;19433;51.292;6.868;2023-08-17T07:21:24;100724.88;;;18.11;100.00
33075;BME280;19433;51.292;6.868;2023-08-17T07:23:50;100728.88;;;18.15;100.00
33075;BME280;19433;51.292;6.868;2023-08-17T07:26:16;100727.34;;;17.96;100.00
33075;BME280;19433;51.292;6.868;2023-08-17T07:28:41;100736.72;;;18.01;100.00
33075;BME280;19433;51.292;6.868;2023-08-17T07:31:06;100733.38;;;18.16;100.00
33075;BME280;19433;51.292;6.868;2023-08-17T07:33:32;100742.09;;;18.19;100.00
33075;BME280;19433;51.292;6.868;2023-08-17T07:35:57;100744.94;;;18.08;100.00
33075;BME280;19433;51.292;6.868;2023-08-17T07:38:23;100739.59;;;18.06;100.00
33075;BME280;19433;51.292;6.868;2023-08-17T07:40:48;100744.13;;;17.96;100.00
33075;BME280;19433;51.292;6.868;2023-08-17T07:43:14;100742.78;;;18.38;100.00
33075;BME280;19433;51.292;6.868;2023-08-17T07:45:39;100750.56;;;18.36;100.00
33075;BME280;19433;51.292;6.868;2023-08-17T07:48:04;100749.28;;;18.27;100.00
33075;BME280;19433;51.292;6.868;2023-08-17T07:50:30;100748.78;;;18.30;100.00
33075;BME280;19433;51.292;6.868;2023-08-17T07:52:55;100745.34;;;18.00;100.00
33075;BME280;19433;51.292;6.868;2023-08-17T07:55:20;100755.16;;;18.14;100.00
33075;BME280;19433;51.292;6.868;2023-08-17T07:57:46;100753.03;;;18.33;100.00
33075;BME280;19433;51.292;6.868;2023-08-17T08:00:11;100752.72;;;18.17;100.00
33075;BME280;19433;51.292;6.868;2023-08-17T08:02:37;100757.94;;;18.14;100.00
33075;BME280;19433;51.292;6.868;2023-08-17T08:05:02;100758.88;;;18.31;100.00
33075;BME280;19433;51.292;6.868;2023-08-17T08:07:27;100760.56;;;18.32;100.00
33075;BME280;19433;51.292;6.868;2023-08-17T08:09:52;100771.41;;;18.28;100.00
33075;BME280;19433;51.292;6.868;2023-08-17T08:12:18;100772.25;;;18.29;100.00
33075;BME280;19433;51.292;6.868;2023-08-17T08:14:43;100766.91;;;18.27;100.00
33075;BME280;19433;51.292;6.868;2023-08-17T08:17:08;100765.44;;;18.65;100.00
33075;BME280;19433;51.292;6.868;2023-08-17T08:19:34;100773.94;;;18.70;100.00
33075;BME280;19433;51.292;6.868;2023-08-17T08:22:00;100775.81;;;18.81;100.00
33075;BME280;19433;51.292;6.868;2023-08-17T08:24:26;100768.41;;;18.58;100.00
33075;BME280;19433;51.292;6.868;2023-08-17T08:26:56;100770.41;;;18.75;100.00
33075;BME280;19433;51.292;6.868;2023-08-17T08:29:21;100772.56;;;19.01;100.00
33075;BME280;19433;51.292;6.868;2023-08-17T08:31:46;100767.91;;;19.07;100.00
33075;BME280;19433;51.292;6.868;2023-08-17T08:34:12;100771.28;;;19.25;100.00
33075;BME280;19433;51.292;6.868;2023-08-17T08:36:37;100766.94;;;19.01;100.00
33075;BME280;19433;51.292;6.868;2023-08-17T08:39:02;100777.69;;;18.76;100.00
33075;BME280;19433;51.292;6.868;2023-08-17T08:41:29;100770.84;;;18.15;100.00
33075;BME280;19433;51.292;6.868;2023-08-17T08:43:54;100766.75;;;18.34;100.00
33075;BME280;19433;51.292;6.868;2023-08-17T08:46:20;100766.97;;;18.44;100.00
33075;BME280;19433;51.292;6.868;2023-08-17T08:48:50;100768.13;;;18.32;100.00
33075;BME280;19433;51.292;6.868;2023-08-17T08:51:23;100772.47;;;18.68;100.00
33075;BME280;19433;51.292;6.868;2023-08-17T08:53:58;100776.16;;;18.85;100.00
33075;BME280;19433;51.292;6.868;2023-08-17T08:56:25;100767.88;;;18.90;100.00
33075;BME280;19433;51.292;6.868;2023-08-17T08:58:51;100763.69;;;18.47;100.00
33075;BME280;19433;51.292;6.868;2023-08-17T09:01:18;100758.94;;;18.48;100.00
33075;BME280;19433;51.292;6.868;2023-08-17T09:03:44;100759.56;;;18.38;100.00
33075;BME280;19433;51.292;6.868;2023-08-17T09:06:11;100750.88;;;18.80;100.00
33075;BME280;19433;51.292;6.868;2023-08-17T09:08:38;100756.22;;;18.81;100.00
33075;BME280;19433;51.292;6.868;2023-08-17T09:11:03;100755.31;;;18.92;100.00
33075;BME280;19433;51.292;6.868;2023-08-17T09:13:29;100758.88;;;18.88;100.00
33075;BME280;19433;51.292;6.868;2023-08-17T09:15:54;100768.66;;;19.36;100.00
33075;BME280;19433;51.292;6.868;2023-08-17T09:18:19;100764.00;;;19.58;100.00
33075;BME280;19433;51.292;6.868;2023-08-17T09:20:46;100767.19;;;19.83;100.00
33075;BME280;19433;51.292;6.868;2023-08-17T09:23:16;100771.88;;;19.27;100.00
33075;BME280;19433;51.292;6.868;2023-08-17T09:25:43;100756.69;;;19.57;100.00
33075;BME280;19433;51.292;6.868;2023-08-17T09:28:13;100768.22;;;19.44;100.00
33075;BME280;19433;51.292;6.868;2023-08-17T09:31:08;100757.13;;;19.65;100.00
33075;BME280;19433;51.292;6.868;2023-08-17T09:33:34;100766.63;;;19.64;100.00
33075;BME280;19433;51.292;6.868;2023-08-17T09:36:00;100765.03;;;19.52;100.00
33075;BME280;19433;51.292;6.868;2023-08-17T09:38:26;100760.03;;;19.92;100.00
33075;BME280;19433;51.292;6.868;2023-08-17T09:40:52;100763.28;;;20.71;100.00
33075;BME280;19433;51.292;6.868;2023-08-17T09:43:18;100753.34;;;21.18;100.00
33075;BME280;19433;51.292;6.868;2023-08-17T09:45:44;100751.56;;;20.53;99.63
33075;BME280;19433;51.292;6.868;2023-08-17T09:48:14;100749.09;;;20.13;100.00
33075;BME280;19433;51.292;6.868;2023-08-17T09:50:40;100747.91;;;20.30;100.00
33075;BME280;19433;51.292;6.868;2023-08-17T09:53:06;100744.19;;;20.25;100.00
33075;BME280;19433;51.292;6.868;2023-08-17T09:55:32;100741.81;;;20.17;100.00
33075;BME280;19433;51.292;6.868;2023-08-17T09:57:59;100740.59;;;20.29;100.00
33075;BME280;19433;51.292;6.868;2023-08-17T10:00:26;100741.41;;;20.74;100.00
33075;BME280;19433;51.292;6.868;2023-08-17T10:02:52;100744.69;;;20.92;100.00
33075;BME280;19433;51.292;6.868;2023-08-17T10:05:19;100737.75;;;20.46;100.00
33075;BME280;19433;51.292;6.868;2023-08-17T10:07:52;100744.13;;;19.98;100.00
33075;BME280;19433;51.292;6.868;2023-08-17T10:10:22;100742.41;;;19.75;100.00
33075;BME280;19433;51.292;6.868;2023-08-17T10:12:57;100745.00;;;20.42;100.00
33075;BME280;19433;51.292;6.868;2023-08-17T10:15:25;100734.41;;;20.06;100.00
33075;BME280;19433;51.292;6.868;2023-08-17T10:18:19;100731.28;;;20.24;100.00
33075;BME280;19433;51.292;6.868;2023-08-17T10:20:58;100728.31;;;20.57;100.00
33075;BME280;19433;51.292;6.868;2023-08-17T10:23:27;100726.38;;;21.49;97.77
33075;BME280;19433;51.292;6.868;2023-08-17T10:25:53;100732.00;;;21.96;97.89
33075;BME280;19433;51.292;6.868;2023-08-17T10:28:22;100736.38;;;21.76;95.07
33075;BME280;19433;51.292;6.868;2023-08-17T10:30:48;100728.91;;;20.86;98.09
33075;BME280;19433;51.292;6.868;2023-08-17T10:33:14;100722.75;;;21.58;96.17
33075;BME280;19433;51.292;6.868;2023-08-17T10:35:40;100727.81;;;21.19;95.68
33075;BME280;19433;51.292;6.868;2023-08-17T10:38:06;100723.88;;;20.88;100.00
33075;BME280;19433;51.292;6.868;2023-08-17T10:40:36;100740.22;;;20.96;99.32
33075;BME280;19433;51.292;6.868;2023-08-17T10:43:02;100746.53;;;20.82;97.02
33075;BME280;19433;51.292;6.868;2023-08-17T10:45:29;100746.78;;;21.39;98.29
33075;BME280;19433;51.292;6.868;2023-08-17T10:50:34;100748.75;;;21.75;94.11
33075;BME280;19433;51.292;6.868;2023-08-17T10:53:04;100756.69;;;21.89;93.34
33075;BME280;19433;51.292;6.868;2023-08-17T10:58:02;100751.38;;;21.92;95.84
33075;BME280;19433;51.292;6.868;2023-08-17T11:00:35;100747.28;;;22.10;93.42
33075;BME280;19433;51.292;6.868;2023-08-17T11:03:08;100749.00;;;22.11;93.62
33075;BME280;19433;51.292;6.868;2023-08-17T11:08:20;100755.75;;;23.23;88.54
33075;BME280;19433;51.292;6.868;2023-08-17T11:13:23;100752.66;;;24.60;85.94
33075;BME280;19433;51.292;6.868;2023-08-17T11:15:48;100752.63;;;24.65;83.22
33075;BME280;19433;51.292;6.868;2023-08-17T11:18:14;100756.13;;;25.01;79.77
33075;BME280;19433;51.292;6.868;2023-08-17T11:20:41;100755.44;;;24.70;80.68
33075;BME280;19433;51.292;6.868;2023-08-17T11:23:07;100753.56;;;24.45;85.83
33075;BME280;19433;51.292;6.868;2023-08-17T11:25:33;100746.31;;;24.78;82.72
33075;BME280;19433;51.292;6.868;2023-08-17T11:28:02;100744.91;;;24.76;86.52
33075;BME280;19433;51.292;6.868;2023-08-17T11:30:28;100744.97;;;24.71;81.36
33075;BME280;19433;51.292;6.868;2023-08-17T11:32:54;100750.44;;;23.57;84.18
33075;BME280;19433;51.292;6.868;2023-08-17T11:35:20;100751.81;;;23.24;85.58
33075;BME280;19433;51.292;6.868;2023-08-17T11:37:46;100747.22;;;22.67;86.87
33075;BME280;19433;51.292;6.868;2023-08-17T11:40:13;100749.00;;;23.14;91.19
33075;BME280;19433;51.292;6.868;2023-08-17T11:42:39;100739.13;;;23.01;88.72
33075;BME280;19433;51.292;6.868;2023-08-17T11:45:05;100744.47;;;23.79;89.37
33075;BME280;19433;51.292;6.868;2023-08-17T11:47:32;100739.41;;;23.50;92.15
33075;BME280;19433;51.292;6.868;2023-08-17T11:50:05;100745.34;;;23.24;86.27
33075;BME280;19433;51.292;6.868;2023-08-17T11:52:31;100741.13;;;23.21;87.90
33075;BME280;19433;51.292;6.868;2023-08-17T11:54:58;100742.25;;;22.17;91.79
33075;BME280;19433;51.292;6.868;2023-08-17T11:57:24;100729.41;;;21.84;94.56
33075;BME280;19433;51.292;6.868;2023-08-17T11:59:53;100738.47;;;22.64;94.71
33075;BME280;19433;51.292;6.868;2023-08-17T12:02:20;100737.47;;;22.13;93.79
33075;BME280;19433;51.292;6.868;2023-08-17T12:04:46;100741.06;;;22.75;93.22
33075;BME280;19433;51.292;6.868;2023-08-17T12:07:11;100742.59;;;22.36;93.06
33075;BME280;19433;51.292;6.868;2023-08-17T12:09:37;100753.41;;;22.59;95.95
33075;BME280;19433;51.292;6.868;2023-08-17T12:12:02;100746.94;;;22.01;93.23
33075;BME280;19433;51.292;6.868;2023-08-17T12:14:27;100746.97;;;21.22;96.41
33075;BME280;19433;51.292;6.868;2023-08-17T12:16:53;100736.53;;;20.91;99.14
33075;BME280;19433;51.292;6.868;2023-08-17T12:19:19;100747.50;;;21.19;98.74
33075;BME280;19433;51.292;6.868;2023-08-17T12:21:45;100744.78;;;21.71;99.22
33075;BME280;19433;51.292;6.868;2023-08-17T12:24:13;100742.75;;;21.62;96.07
33075;BME280;19433;51.292;6.868;2023-08-17T12:26:46;100743.13;;;21.33;97.78
33075;BME280;19433;51.292;6.868;2023-08-17T12:29:12;100741.47;;;21.37;97.62
33075;BME280;19433;51.292;6.868;2023-08-17T12:31:38;100734.22;;;21.47;97.15
33075;BME280;19433;51.292;6.868;2023-08-17T12:34:03;100737.34;;;21.50;97.16
33075;BME280;19433;51.292;6.868;2023-08-17T12:36:33;100731.50;;;21.62;95.32
33075;BME280;19433;51.292;6.868;2023-08-17T12:39:00;100725.63;;;21.63;96.61
33075;BME280;19433;51.292;6.868;2023-08-17T12:41:25;100735.66;;;21.49;95.86
33075;BME280;19433;51.292;6.868;2023-08-17T12:43:51;100740.03;;;21.77;95.76
33075;BME280;19433;51.292;6.868;2023-08-17T12:46:19;100745.03;;;21.70;96.86
33075;BME280;19433;51.292;6.868;2023-08-17T12:48:44;100737.97;;;21.62;96.39